createdAt,value
2023-04-24T00:00:47.249Z,72.72
2023-04-24T00:02:01.396Z,72.58
2023-04-24T00:03:04.322Z,72.66
2023-04-24T00:04:07.684Z,72.82
2023-04-24T00:05:09.586Z,72.66
2023-04-24T00:06:11.281Z,72.96
2023-04-24T00:07:13.414Z,72.96
2023-04-24T00:08:15.091Z,72.79
2023-04-24T00:09:16.803Z,72.71
2023-04-24T00:10:19.246Z,72.73
2023-04-24T00:11:20.918Z,72.75
2023-04-24T00:12:38.623Z,72.61
2023-04-24T00:13:40.812Z,72.82
2023-04-24T00:14:42.284Z,72.63
2023-04-24T00:15:43.867Z,72.71
2023-04-24T00:16:45.557Z,72.80
2023-04-24T00:17:47.998Z,72.83
2023-04-24T00:18:49.605Z,73.02
2023-04-24T00:19:51.664Z,72.97
2023-04-24T00:20:53.224Z,72.73
2023-04-24T00:21:55.071Z,72.61
2023-04-24T00:22:56.534Z,72.53
2023-04-24T00:23:58.012Z,72.60
2023-04-24T00:24:59.694Z,72.46
2023-04-24T00:26:01.166Z,72.74
2023-04-24T00:27:02.953Z,72.87
2023-04-24T00:28:04.753Z,72.95
2023-04-24T00:29:06.245Z,72.73
2023-04-24T00:30:08.216Z,72.73
2023-04-24T00:31:09.797Z,72.94
2023-04-24T00:32:11.883Z,72.66
2023-04-24T00:33:13.525Z,72.68
2023-04-24T00:34:14.977Z,72.80
2023-04-24T00:35:16.786Z,72.84
2023-04-24T00:36:20.852Z,72.84
2023-04-24T00:37:22.432Z,73.09
2023-04-24T00:38:25.010Z,72.78
2023-04-24T00:39:26.579Z,72.64
2023-04-24T00:40:28.672Z,72.53
2023-04-24T00:41:30.760Z,72.67
2023-04-24T00:42:32.457Z,72.68
2023-04-24T00:43:34.117Z,72.64
2023-04-24T00:44:35.760Z,72.61
2023-04-24T00:45:37.416Z,72.61
2023-04-24T00:46:39.107Z,72.54
2023-04-24T00:47:42.120Z,72.43
2023-04-24T00:48:44.213Z,72.58
2023-04-24T00:49:46.280Z,72.45
2023-04-24T00:50:47.838Z,72.76
2023-04-24T00:51:51.487Z,72.64
2023-04-24T00:52:53.235Z,73.06
2023-04-24T00:53:55.007Z,72.78
2023-04-24T00:54:56.487Z,72.79
2023-04-24T00:55:58.265Z,72.85
2023-04-24T00:57:00.805Z,73.06
2023-04-24T00:58:02.521Z,73.10
2023-04-24T00:59:04.889Z,72.91
2023-04-24T01:00:12.023Z,72.87
2023-04-24T01:01:14.526Z,73.04
2023-04-24T01:02:16.383Z,73.07
2023-04-24T01:03:18.848Z,72.72
2023-04-24T01:04:21.295Z,72.83
2023-04-24T01:05:23.403Z,72.79
2023-04-24T01:06:28.297Z,73.07
2023-04-24T01:07:30.095Z,73.02
2023-04-24T01:08:31.732Z,73.01
2023-04-24T01:09:33.459Z,73.12
2023-04-24T01:10:36.782Z,73.24
2023-04-24T01:11:38.440Z,73.25
2023-04-24T01:12:40.373Z,73.34
2023-04-24T01:13:41.974Z,73.06
2023-04-24T01:14:45.582Z,72.87
2023-04-24T01:15:47.808Z,72.91
2023-04-24T01:16:49.399Z,72.69
2023-04-24T01:17:51.344Z,72.79
2023-04-24T01:18:52.937Z,72.66
2023-04-24T01:19:57.015Z,72.62
2023-04-24T01:21:06.661Z,72.65
2023-04-24T01:22:12.107Z,72.76
2023-04-24T01:23:13.895Z,72.86
2023-04-24T01:24:15.691Z,72.83
2023-04-24T01:25:17.527Z,73.01
2023-04-24T01:26:20.525Z,72.83
2023-04-24T01:27:22.262Z,72.99
2023-04-24T01:28:24.424Z,73.09
2023-04-24T01:29:25.940Z,73.25
2023-04-24T01:32:00.255Z,72.93
2023-04-24T01:33:02.824Z,73.01
2023-04-24T01:34:04.568Z,73.27
2023-04-24T01:35:07.056Z,73.20
2023-04-24T01:36:11.184Z,73.08
2023-04-24T01:37:12.831Z,73.11
2023-04-24T01:38:14.794Z,73.25
2023-04-24T01:39:17.074Z,73.38
2023-04-24T01:40:18.625Z,73.55
2023-04-24T01:41:20.755Z,73.62
2023-04-24T01:42:22.860Z,73.64
2023-04-24T01:43:24.863Z,73.57
2023-04-24T01:44:27.009Z,73.53
2023-04-24T01:45:28.604Z,73.46
2023-04-24T01:46:31.884Z,73.47
2023-04-24T01:47:34.068Z,73.56
2023-04-24T01:48:35.873Z,73.63
2023-04-24T01:49:41.775Z,73.47
2023-04-24T01:50:43.404Z,73.58
2023-04-24T01:51:47.241Z,73.45
2023-04-24T01:52:49.033Z,73.53
2023-04-24T01:53:50.901Z,73.65
2023-04-24T01:54:52.826Z,73.72
2023-04-24T01:55:54.436Z,73.91
2023-04-24T01:56:56.089Z,73.78
2023-04-24T01:58:00.019Z,73.75
2023-04-24T01:59:03.624Z,73.67
2023-04-24T02:00:07.471Z,73.70
2023-04-24T02:01:26.689Z,73.76
2023-04-24T02:02:29.271Z,73.37
2023-04-24T02:03:32.297Z,73.43
2023-04-24T02:04:33.912Z,73.35
2023-04-24T02:05:35.443Z,73.22
2023-04-24T02:06:38.460Z,73.29
2023-04-24T02:07:40.235Z,73.45
2023-04-24T02:08:42.051Z,73.36
2023-04-24T02:09:43.678Z,73.55
2023-04-24T02:10:46.300Z,73.50
2023-04-24T02:11:47.951Z,73.49
2023-04-24T02:12:49.425Z,73.36
2023-04-24T02:13:51.850Z,73.16
2023-04-24T02:14:53.383Z,73.07
2023-04-24T02:15:54.814Z,73.00
2023-04-24T02:16:56.234Z,73.11
2023-04-24T02:17:58.193Z,73.16
2023-04-24T02:18:59.880Z,73.41
2023-04-24T02:20:01.337Z,73.25
2023-04-24T02:21:03.025Z,73.21
2023-04-24T02:22:04.734Z,73.32
2023-04-24T02:23:06.262Z,73.55
2023-04-24T02:24:07.704Z,73.44
2023-04-24T02:25:09.503Z,73.49
2023-04-24T02:26:11.406Z,73.42
2023-04-24T02:27:13.120Z,73.26
2023-04-24T02:28:14.774Z,73.23
2023-04-24T02:29:16.351Z,73.08
2023-04-24T02:30:17.869Z,73.15
2023-04-24T02:31:20.530Z,73.10
2023-04-24T02:32:23.216Z,73.12
2023-04-24T02:33:24.923Z,73.20
2023-04-24T02:34:26.597Z,73.16
2023-04-24T02:35:28.119Z,73.29
2023-04-24T02:36:30.666Z,73.19
2023-04-24T02:37:32.471Z,73.14
2023-04-24T02:38:34.069Z,73.25
2023-04-24T02:39:35.681Z,73.36
2023-04-24T02:40:37.159Z,73.26
2023-04-24T02:41:38.581Z,73.41
2023-04-24T02:42:40.106Z,73.47
2023-04-24T02:43:41.750Z,73.42
2023-04-24T02:44:43.265Z,73.36
2023-04-24T02:45:44.975Z,73.46
2023-04-24T02:46:46.453Z,73.39
2023-04-24T02:47:47.926Z,73.57
2023-04-24T02:48:49.355Z,73.55
2023-04-24T02:49:50.893Z,73.54
2023-04-24T02:50:52.371Z,73.42
2023-04-24T02:51:53.987Z,73.36
2023-04-24T02:52:55.460Z,73.36
2023-04-24T02:53:57.030Z,73.31
2023-04-24T02:54:58.521Z,73.27
2023-04-24T02:56:00.148Z,73.35
2023-04-24T02:57:01.778Z,73.43
2023-04-24T02:58:03.495Z,73.20
2023-04-24T02:59:05.127Z,73.03
2023-04-24T03:00:07.594Z,73.04
2023-04-24T03:01:10.512Z,73.14
2023-04-24T03:02:12.246Z,73.12
2023-04-24T03:03:14.437Z,73.10
2023-04-24T03:04:17.077Z,73.05
2023-04-24T03:05:18.901Z,73.21
2023-04-24T03:06:21.300Z,73.25
2023-04-24T03:07:24.463Z,73.19
2023-04-24T03:08:25.948Z,73.29
2023-04-24T03:09:27.511Z,73.21
2023-04-24T03:10:29.277Z,73.14
2023-04-24T03:11:30.713Z,73.07
2023-04-24T03:12:32.755Z,73.02
2023-04-24T03:13:34.516Z,73.30
2023-04-24T03:14:35.974Z,73.15
2023-04-24T03:15:37.639Z,73.00
2023-04-24T03:16:39.146Z,73.19
2023-04-24T03:17:42.111Z,73.32
2023-04-24T03:18:43.690Z,73.26
2023-04-24T03:19:45.734Z,73.29
2023-04-24T03:20:47.964Z,73.09
2023-04-24T03:21:50.364Z,73.21
2023-04-24T03:22:52.650Z,73.28
2023-04-24T03:23:55.387Z,73.19
2023-04-24T03:24:57.070Z,73.32
2023-04-24T03:25:58.761Z,73.20
2023-04-24T03:27:00.598Z,73.28
2023-04-24T03:28:25.495Z,73.23
2023-04-24T03:29:34.899Z,73.28
2023-04-24T03:30:37.400Z,73.32
2023-04-24T03:31:39.863Z,73.14
2023-04-24T03:32:41.422Z,73.14
2023-04-24T03:33:44.360Z,73.13
2023-04-24T03:34:46.000Z,73.07
2023-04-24T03:35:49.127Z,73.27
2023-04-24T03:36:50.774Z,73.29
2023-04-24T03:37:52.305Z,73.24
2023-04-24T03:39:14.579Z,73.22
2023-04-24T03:40:22.746Z,73.54
2023-04-24T03:41:24.628Z,73.45
2023-04-24T03:42:30.658Z,73.38
2023-04-24T03:43:33.754Z,73.51
2023-04-24T03:44:36.498Z,73.49
2023-04-24T03:45:38.108Z,73.23
2023-04-24T03:46:39.808Z,73.16
2023-04-24T03:47:41.987Z,73.05
2023-04-24T03:48:43.594Z,73.11
2023-04-24T03:49:45.482Z,73.04
2023-04-24T03:50:47.090Z,72.95
2023-04-24T03:51:48.624Z,72.93
2023-04-24T03:52:53.724Z,73.02
2023-04-24T03:54:07.613Z,72.92
2023-04-24T03:55:13.172Z,72.89
2023-04-24T03:56:18.310Z,72.92
2023-04-24T03:57:19.859Z,72.82
2023-04-24T03:58:31.699Z,72.82
2023-04-24T03:59:33.170Z,72.81
2023-04-24T04:00:48.036Z,72.93
2023-04-24T04:02:18.996Z,73.20
2023-04-24T04:03:21.236Z,73.11
2023-04-24T04:04:23.953Z,72.93
2023-04-24T04:05:25.930Z,72.86
2023-04-24T04:06:27.656Z,72.95
2023-04-24T04:07:30.352Z,73.03
2023-04-24T04:08:32.048Z,73.02
2023-04-24T04:09:34.355Z,73.02
2023-04-24T04:10:36.055Z,72.85
2023-04-24T04:11:39.948Z,72.81
2023-04-24T04:12:41.417Z,72.81
2023-04-24T04:13:43.612Z,72.75
2023-04-24T04:14:45.140Z,72.75
2023-04-24T04:15:46.809Z,72.88
2023-04-24T04:16:48.404Z,72.80
2023-04-24T04:17:50.083Z,72.73
2023-04-24T04:18:51.559Z,72.66
2023-04-24T04:19:53.176Z,72.64
2023-04-24T04:20:54.757Z,72.73
2023-04-24T04:21:56.508Z,72.74
2023-04-24T04:23:08.961Z,72.70
2023-04-24T04:24:21.105Z,72.73
2023-04-24T04:25:23.453Z,72.66
2023-04-24T04:26:25.856Z,72.70
2023-04-24T04:27:35.613Z,73.05
2023-04-24T04:28:40.397Z,73.21
2023-04-24T04:29:42.627Z,72.97
2023-04-24T04:30:45.922Z,72.79
2023-04-24T04:31:47.538Z,72.80
2023-04-24T04:32:49.939Z,72.64
2023-04-24T04:33:51.531Z,72.57
2023-04-24T04:34:54.037Z,72.61
2023-04-24T04:35:57.033Z,72.52
2023-04-24T04:37:02.306Z,72.37
2023-04-24T04:38:43.226Z,72.30
2023-04-24T04:39:56.192Z,72.31
2023-04-24T04:41:00.027Z,72.21
2023-04-24T04:42:04.122Z,72.18
2023-04-24T04:43:13.696Z,72.21
2023-04-24T04:44:18.866Z,72.27
2023-04-24T04:45:20.956Z,72.33
2023-04-24T04:46:42.867Z,72.31
2023-04-24T04:47:52.996Z,72.34
2023-04-24T04:48:54.792Z,72.43
2023-04-24T04:49:56.309Z,72.52
2023-04-24T04:50:59.885Z,72.71
2023-04-24T04:52:01.925Z,72.86
2023-04-24T04:53:03.916Z,72.89
2023-04-24T04:54:08.742Z,72.98
2023-04-24T04:55:13.573Z,73.03
2023-04-24T04:56:38.042Z,73.10
2023-04-24T04:57:40.314Z,72.94
2023-04-24T04:58:41.773Z,72.94
2023-04-24T04:59:46.758Z,72.96
2023-04-24T05:00:53.576Z,73.07
2023-04-24T05:02:02.002Z,73.16
2023-04-24T05:03:19.042Z,72.94
2023-04-24T05:04:23.243Z,73.01
2023-04-24T05:05:24.976Z,72.89
2023-04-24T05:06:26.490Z,72.86
2023-04-24T05:07:28.115Z,72.68
2023-04-24T05:08:30.161Z,72.52
2023-04-24T05:09:31.623Z,72.53
2023-04-24T05:10:37.317Z,72.49
2023-04-24T05:11:39.009Z,72.49
2023-04-24T05:12:40.670Z,72.56
2023-04-24T05:13:42.658Z,72.54
2023-04-24T05:14:48.546Z,72.56
2023-04-24T05:15:50.256Z,72.31
2023-04-24T05:16:51.825Z,72.13
2023-04-24T05:17:56.779Z,72.08
2023-04-24T05:18:59.618Z,71.94
2023-04-24T05:20:05.725Z,71.92
2023-04-24T05:21:08.206Z,71.82
2023-04-24T05:22:11.873Z,71.86
2023-04-24T05:23:20.527Z,71.84
2023-04-24T05:24:24.534Z,71.91
2023-04-24T05:25:52.445Z,71.70
2023-04-24T05:26:55.860Z,71.55
2023-04-24T05:28:00.740Z,71.73
2023-04-24T05:29:03.012Z,71.61
2023-04-24T05:30:05.296Z,71.56
2023-04-24T05:31:06.777Z,71.48
2023-04-24T05:32:08.150Z,71.44
2023-04-24T05:33:10.208Z,71.53
2023-04-24T05:34:11.619Z,71.68
2023-04-24T05:35:16.206Z,71.65
2023-04-24T05:36:17.981Z,71.57
2023-04-24T05:37:19.699Z,71.37
2023-04-24T05:38:21.805Z,71.32
2023-04-24T05:39:25.275Z,71.12
2023-04-24T05:40:26.872Z,70.74
2023-04-24T05:41:28.479Z,70.63
2023-04-24T05:42:29.969Z,70.58
2023-04-24T05:43:32.430Z,70.62
2023-04-24T05:44:34.131Z,70.56
2023-04-24T05:45:36.489Z,70.52
2023-04-24T05:46:38.078Z,70.48
2023-04-24T05:47:39.938Z,70.35
2023-04-24T05:48:41.463Z,70.20
2023-04-24T05:49:43.192Z,70.21
2023-04-24T05:50:45.097Z,70.18
2023-04-24T05:51:47.165Z,70.14
2023-04-24T05:52:49.461Z,69.83
2023-04-24T05:53:59.449Z,69.60
2023-04-24T05:55:01.113Z,69.53
2023-04-24T05:56:04.067Z,69.47
2023-04-24T05:57:08.053Z,69.38
2023-04-24T05:58:22.616Z,69.71
2023-04-24T05:59:24.647Z,69.75
2023-04-24T06:00:27.153Z,69.76
2023-04-24T06:01:33.985Z,69.76
2023-04-24T06:02:42.140Z,69.75
2023-04-24T06:03:45.859Z,69.81
2023-04-24T06:04:48.253Z,69.87
2023-04-24T06:05:51.602Z,69.81
2023-04-24T06:06:56.203Z,69.86
2023-04-24T06:07:57.789Z,70.00
2023-04-24T06:09:02.511Z,69.92
2023-04-24T06:10:04.613Z,70.02
2023-04-24T06:11:11.222Z,70.06
2023-04-24T06:12:13.807Z,69.94
2023-04-24T06:13:32.040Z,70.08
2023-04-24T06:14:55.789Z,70.27
2023-04-24T06:16:03.065Z,70.11
2023-04-24T06:17:09.566Z,69.85
2023-04-24T06:18:15.457Z,69.62
2023-04-24T06:19:17.076Z,69.54
2023-04-24T06:20:18.823Z,69.64
2023-04-24T06:21:20.647Z,69.22
2023-04-24T06:22:22.137Z,69.23
2023-04-24T06:23:23.873Z,69.01
2023-04-24T06:24:28.823Z,68.78
2023-04-24T06:25:30.931Z,68.63
2023-04-24T06:26:32.642Z,67.85
2023-04-24T06:27:35.609Z,67.91
2023-04-24T06:28:37.933Z,67.52
2023-04-24T06:29:39.384Z,67.54
2023-04-24T06:30:41.990Z,67.33
2023-04-24T06:31:43.404Z,67.27
2023-04-24T06:32:45.723Z,67.14
2023-04-24T06:33:49.060Z,66.50
2023-04-24T06:34:53.885Z,66.72
2023-04-24T06:35:55.458Z,66.70
2023-04-24T06:36:57.124Z,66.63
2023-04-24T06:37:58.567Z,66.77
2023-04-24T06:39:00.305Z,66.24
2023-04-24T06:40:01.715Z,66.19
2023-04-24T06:41:05.330Z,66.31
2023-04-24T06:42:06.899Z,66.17
2023-04-24T06:43:09.951Z,66.11
2023-04-24T06:44:11.637Z,65.71
2023-04-24T06:45:13.054Z,65.88
2023-04-24T06:46:14.738Z,65.89
2023-04-24T06:47:16.251Z,66.02
2023-04-24T06:48:17.687Z,65.99
2023-04-24T06:49:19.567Z,65.67
2023-04-24T06:50:21.171Z,65.64
2023-04-24T06:51:26.964Z,65.81
2023-04-24T06:52:28.434Z,65.77
2023-04-24T06:53:29.924Z,65.75
2023-04-24T06:54:31.636Z,65.38
2023-04-24T06:55:33.128Z,65.20
2023-04-24T06:56:34.816Z,65.21
2023-04-24T06:57:36.383Z,65.43
2023-04-24T06:58:37.923Z,65.58
2023-04-24T06:59:39.512Z,65.68
2023-04-24T07:00:40.948Z,65.80
2023-04-24T07:01:42.402Z,65.90
2023-04-24T07:02:43.909Z,66.42
2023-04-24T07:03:45.827Z,66.56
2023-04-24T07:04:48.072Z,66.81
2023-04-24T07:05:49.672Z,66.87
2023-04-24T07:06:51.710Z,67.04
2023-04-24T07:07:53.536Z,67.52
2023-04-24T07:08:56.284Z,67.71
2023-04-24T07:09:57.964Z,67.73
2023-04-24T07:11:00.149Z,67.89
2023-04-24T07:12:01.771Z,67.88
2023-04-24T07:13:03.429Z,68.15
2023-04-24T07:14:04.862Z,68.17
2023-04-24T07:15:08.148Z,68.49
2023-04-24T07:16:10.140Z,68.73
2023-04-24T07:17:13.500Z,68.86
2023-04-24T07:18:15.056Z,69.18
2023-04-24T07:19:16.399Z,69.40
2023-04-24T07:20:17.978Z,69.40
2023-04-24T07:21:19.431Z,69.65
2023-04-24T07:22:21.165Z,69.77
2023-04-24T07:23:22.564Z,69.77
2023-04-24T07:24:26.783Z,69.70
2023-04-24T07:25:28.591Z,69.81
2023-04-24T07:26:31.030Z,69.89
2023-04-24T07:27:33.233Z,69.94
2023-04-24T07:28:34.704Z,70.01
2023-04-24T07:29:36.082Z,70.10
2023-04-24T07:30:37.808Z,70.48
2023-04-24T07:31:39.317Z,70.58
2023-04-24T07:32:40.819Z,70.78
2023-04-24T07:33:42.271Z,70.97
2023-04-24T07:34:43.829Z,70.98
2023-04-24T07:35:45.760Z,70.89
2023-04-24T07:36:47.662Z,71.03
2023-04-24T07:37:49.224Z,71.20
2023-04-24T07:38:50.673Z,71.36
2023-04-24T07:39:52.195Z,71.20
2023-04-24T07:40:53.896Z,71.74
2023-04-24T07:41:55.284Z,71.87
2023-04-24T07:42:56.738Z,71.93
2023-04-24T07:43:58.849Z,71.82
2023-04-24T07:45:00.383Z,71.60
2023-04-24T07:46:02.213Z,71.63
2023-04-24T07:47:03.771Z,71.67
2023-04-24T07:48:05.880Z,72.06
2023-04-24T07:49:13.690Z,72.05
2023-04-24T07:50:15.980Z,72.06
2023-04-24T07:51:17.451Z,72.04
2023-04-24T07:52:18.865Z,72.40
2023-04-24T07:53:20.378Z,72.42
2023-04-24T07:54:21.795Z,72.34
2023-04-24T07:55:24.724Z,72.67
2023-04-24T07:56:31.653Z,72.73
2023-04-24T07:57:33.123Z,72.58
2023-04-24T07:58:35.168Z,72.70
2023-04-24T07:59:36.614Z,72.66
2023-04-24T08:00:38.256Z,73.12
2023-04-24T08:01:40.404Z,72.90
2023-04-24T08:02:41.937Z,72.85
2023-04-24T08:03:44.081Z,72.91
2023-04-24T08:04:45.909Z,72.92
2023-04-24T08:05:47.668Z,73.27
2023-04-24T08:06:49.447Z,73.27
2023-04-24T08:07:50.980Z,73.10
2023-04-24T08:08:52.398Z,73.42
2023-04-24T08:09:54.184Z,73.29
2023-04-24T08:10:55.618Z,73.92
2023-04-24T08:11:57.307Z,74.01
2023-04-24T08:12:58.776Z,73.76
2023-04-24T08:14:00.166Z,73.72
2023-04-24T08:15:01.662Z,73.50
2023-04-24T08:16:03.155Z,73.39
2023-04-24T08:17:04.671Z,73.21
2023-04-24T08:18:06.285Z,73.15
2023-04-24T08:19:08.002Z,73.09
2023-04-24T08:20:13.849Z,72.89
2023-04-24T08:21:17.446Z,72.82
2023-04-24T08:22:19.312Z,72.72
2023-04-24T08:23:20.752Z,72.65
2023-04-24T08:24:22.627Z,72.91
2023-04-24T08:25:24.965Z,72.66
2023-04-24T08:26:26.498Z,72.84
2023-04-24T08:27:27.934Z,72.63
2023-04-24T08:28:29.600Z,72.65
2023-04-24T08:29:31.088Z,72.70
2023-04-24T08:30:32.554Z,72.65
2023-04-24T08:31:34.154Z,72.66
2023-04-24T08:32:36.981Z,72.60
2023-04-24T08:33:38.401Z,72.55
2023-04-24T08:34:39.815Z,72.57
2023-04-24T08:35:41.280Z,72.87
2023-04-24T08:36:47.011Z,72.95
2023-04-24T08:37:49.611Z,72.76
2023-04-24T08:38:51.071Z,72.84
2023-04-24T08:39:53.135Z,72.76
2023-04-24T08:40:55.100Z,72.53
2023-04-24T08:41:56.518Z,72.65
2023-04-24T08:42:59.810Z,72.45
2023-04-24T08:44:02.732Z,72.18
2023-04-24T08:45:04.649Z,71.78
2023-04-24T08:46:10.954Z,71.87
2023-04-24T08:47:15.873Z,71.51
2023-04-24T08:48:29.681Z,71.06
2023-04-24T08:49:33.653Z,70.70
2023-04-24T08:50:35.261Z,70.85
2023-04-24T08:51:38.097Z,70.89
2023-04-24T08:52:39.871Z,70.72
2023-04-24T08:53:42.020Z,70.59
2023-04-24T08:54:45.871Z,70.14
2023-04-24T08:55:48.787Z,69.81
2023-04-24T08:56:53.843Z,69.58
2023-04-24T08:57:56.179Z,69.50
2023-04-24T08:58:58.107Z,69.27
2023-04-24T09:00:00.730Z,69.24
2023-04-24T09:01:03.475Z,69.07
2023-04-24T09:02:05.836Z,68.89
2023-04-24T09:03:07.555Z,68.77
2023-04-24T09:04:11.361Z,68.37
2023-04-24T09:05:14.298Z,68.29
2023-04-24T09:06:18.555Z,68.31
2023-04-24T09:07:24.619Z,68.11
2023-04-24T09:08:28.388Z,68.42
2023-04-24T09:09:33.154Z,68.10
2023-04-24T09:10:35.325Z,67.56
2023-04-24T09:11:36.997Z,67.69
2023-04-24T09:12:38.453Z,68.04
2023-04-24T09:13:40.153Z,67.95
2023-04-24T09:14:45.282Z,67.65
2023-04-24T09:15:46.916Z,67.43
2023-04-24T09:16:48.814Z,67.40
2023-04-24T09:17:50.673Z,67.38
2023-04-24T09:18:52.574Z,67.42
2023-04-24T09:19:55.967Z,67.67
2023-04-24T09:21:02.876Z,67.90
2023-04-24T09:22:09.502Z,67.94
2023-04-24T09:23:16.468Z,67.94
2023-04-24T09:24:22.708Z,67.94
2023-04-24T09:25:34.755Z,67.87
2023-04-24T09:26:36.980Z,67.93
2023-04-24T09:27:46.825Z,67.85
2023-04-24T09:28:48.306Z,67.95
2023-04-24T09:29:56.972Z,68.23
2023-04-24T09:31:15.264Z,68.41
2023-04-24T09:32:22.238Z,68.23
2023-04-24T09:33:23.705Z,68.20
2023-04-24T09:34:27.273Z,68.32
2023-04-24T09:35:28.625Z,68.51
2023-04-24T09:36:37.446Z,68.32
2023-04-24T09:37:41.704Z,68.14
2023-04-24T09:38:43.197Z,67.52
2023-04-24T09:39:45.135Z,67.69
2023-04-24T09:40:46.676Z,67.62
2023-04-24T09:41:53.506Z,67.31
2023-04-24T09:43:01.403Z,67.53
2023-04-24T09:44:21.338Z,67.74
2023-04-24T09:45:28.685Z,67.96
2023-04-24T09:46:33.934Z,67.88
2023-04-24T09:47:40.222Z,67.73
2023-04-24T09:48:41.701Z,67.64
2023-04-24T09:49:44.198Z,67.37
2023-04-24T09:50:48.598Z,67.67
2023-04-24T09:51:50.137Z,67.22
2023-04-24T09:53:01.635Z,66.95
2023-04-24T09:54:05.076Z,66.60
2023-04-24T09:55:12.417Z,66.58
2023-04-24T09:56:13.943Z,66.78
2023-04-24T09:57:15.364Z,66.46
2023-04-24T09:58:16.880Z,66.53
2023-04-24T09:59:20.187Z,66.16
2023-04-24T10:00:32.870Z,65.89
2023-04-24T10:01:34.989Z,65.47
2023-04-24T10:02:36.631Z,65.26
2023-04-24T10:03:38.600Z,65.40
2023-04-24T10:04:40.344Z,64.68
2023-04-24T10:05:43.799Z,64.49
2023-04-24T10:06:46.312Z,63.90
2023-04-24T10:07:49.568Z,63.53
2023-04-24T10:08:51.735Z,63.54
2023-04-24T10:09:53.634Z,63.25
2023-04-24T10:10:55.055Z,63.61
2023-04-24T10:11:56.503Z,63.67
2023-04-24T10:12:58.070Z,63.52
2023-04-24T10:13:59.822Z,63.74
2023-04-24T10:15:02.201Z,63.21
2023-04-24T10:16:04.387Z,63.52
2023-04-24T10:17:06.598Z,63.18
2023-04-24T10:18:09.751Z,63.76
2023-04-24T10:19:13.382Z,63.94
2023-04-24T10:20:14.831Z,64.24
2023-04-24T10:21:18.354Z,64.12
2023-04-24T10:22:20.498Z,63.94
2023-04-24T10:23:22.553Z,63.48
2023-04-24T10:24:24.159Z,63.20
2023-04-24T10:25:30.666Z,62.62
2023-04-24T10:26:32.328Z,62.75
2023-04-24T10:27:35.052Z,62.84
2023-04-24T10:28:37.220Z,61.98
2023-04-24T10:29:40.505Z,62.52
2023-04-24T10:30:43.352Z,61.89
2023-04-24T10:31:48.445Z,61.30
2023-04-24T10:32:50.172Z,61.60
2023-04-24T10:33:54.224Z,61.49
2023-04-24T10:34:56.886Z,61.38
2023-04-24T10:35:59.120Z,61.63
2023-04-24T10:37:00.670Z,61.32
2023-04-24T10:38:06.928Z,60.11
2023-04-24T10:39:11.829Z,60.36
2023-04-24T10:40:18.610Z,59.61
2023-04-24T10:41:23.398Z,59.00
2023-04-24T10:42:27.733Z,58.94
2023-04-24T10:43:29.389Z,59.54
2023-04-24T10:44:37.122Z,59.26
2023-04-24T10:45:39.416Z,59.58
2023-04-24T10:46:45.785Z,59.94
2023-04-24T10:48:03.002Z,59.42
2023-04-24T10:49:08.926Z,58.30
2023-04-24T10:50:11.196Z,58.60
2023-04-24T10:51:14.399Z,58.19
2023-04-24T10:52:16.964Z,58.35
2023-04-24T10:53:27.197Z,59.07
2023-04-24T10:54:29.967Z,60.33
2023-04-24T10:56:05.990Z,60.28
2023-04-24T10:57:23.050Z,60.82
2023-04-24T10:58:38.638Z,59.77
2023-04-24T10:59:40.210Z,60.34
2023-04-24T11:00:41.967Z,59.57
2023-04-24T11:01:54.187Z,58.82
2023-04-24T11:02:56.489Z,59.13
2023-04-24T11:04:00.105Z,58.82
2023-04-24T11:05:04.323Z,58.80
2023-04-24T11:06:07.918Z,56.26
2023-04-24T11:07:10.541Z,56.21
2023-04-24T11:08:14.502Z,55.28
2023-04-24T11:09:16.898Z,55.00
2023-04-24T11:10:27.526Z,54.62
2023-04-24T11:11:30.040Z,55.15
2023-04-24T11:12:35.493Z,55.25
2023-04-24T11:14:00.281Z,55.18
2023-04-24T11:15:03.100Z,55.13
2023-04-24T11:16:26.386Z,55.07
2023-04-24T11:17:35.386Z,55.91
2023-04-24T11:18:40.757Z,56.36
2023-04-24T11:20:48.551Z,56.41
2023-04-24T11:22:02.782Z,57.09
2023-04-24T11:23:05.143Z,57.85
2023-04-24T11:24:25.931Z,57.86
2023-04-24T11:25:31.183Z,58.02
2023-04-24T11:26:38.679Z,58.57
2023-04-24T11:27:42.293Z,57.60
2023-04-24T11:28:51.000Z,58.04
2023-04-24T11:29:55.707Z,57.80
2023-04-24T11:30:57.546Z,57.65
2023-04-24T11:32:15.266Z,56.94
2023-04-24T11:33:21.041Z,57.08
2023-04-24T11:34:23.622Z,57.16
2023-04-24T11:35:25.556Z,56.60
2023-04-24T11:36:27.098Z,56.66
2023-04-24T11:37:39.960Z,56.35
2023-04-24T11:38:41.999Z,56.64
2023-04-24T11:39:43.597Z,56.53
2023-04-24T11:40:46.290Z,56.69
2023-04-24T11:41:47.980Z,57.47
2023-04-24T11:42:55.801Z,57.40
2023-04-24T11:43:58.321Z,57.32
2023-04-24T11:45:00.718Z,56.63
2023-04-24T11:46:02.617Z,56.14
2023-04-24T11:47:06.180Z,55.78
2023-04-24T11:48:07.848Z,55.77
2023-04-24T11:49:09.286Z,55.91
2023-04-24T11:50:15.531Z,56.10
2023-04-24T11:51:17.091Z,55.65
2023-04-24T11:52:20.051Z,55.70
2023-04-24T11:53:22.148Z,55.26
2023-04-24T11:54:23.617Z,54.53
2023-04-24T11:55:27.900Z,54.48
2023-04-24T11:56:29.985Z,54.87
2023-04-24T11:57:34.903Z,54.35
2023-04-24T11:58:37.269Z,53.64
2023-04-24T11:59:38.830Z,54.02
2023-04-24T12:00:40.318Z,52.97
2023-04-24T12:01:46.219Z,51.70
2023-04-24T12:02:49.160Z,51.92
2023-04-24T12:03:55.304Z,48.54
2023-04-24T12:04:57.243Z,47.25
2023-04-24T12:06:10.257Z,47.16
2023-04-24T12:07:12.238Z,46.46
2023-04-24T12:08:28.728Z,46.33
2023-04-24T12:09:47.527Z,45.97
2023-04-24T12:10:52.187Z,46.48
2023-04-24T12:11:57.697Z,45.45
2023-04-24T12:13:00.791Z,44.80
2023-04-24T12:14:12.695Z,44.37
2023-04-24T12:15:16.448Z,43.60
2023-04-24T12:16:17.970Z,43.46
2023-04-24T12:17:27.447Z,43.25
2023-04-24T12:18:31.180Z,43.04
2023-04-24T12:19:32.541Z,43.20
2023-04-24T12:20:34.074Z,43.24
2023-04-24T12:21:35.778Z,42.98
2023-04-24T12:22:57.385Z,43.03
2023-04-24T12:23:59.077Z,43.49
2023-04-24T12:25:05.812Z,43.28
2023-04-24T12:26:07.227Z,43.41
2023-04-24T12:27:20.903Z,43.67
2023-04-24T12:28:22.415Z,43.93
2023-04-24T12:29:24.989Z,44.21
2023-04-24T12:30:29.209Z,44.31
2023-04-24T12:31:32.623Z,44.23
2023-04-24T12:32:34.064Z,44.62
2023-04-24T12:33:36.251Z,44.56
2023-04-24T12:34:37.961Z,44.88
2023-04-24T12:35:41.340Z,45.20
2023-04-24T12:36:42.817Z,45.43
2023-04-24T12:37:47.103Z,45.35
2023-04-24T12:38:53.644Z,45.22
2023-04-24T12:39:59.701Z,45.39
2023-04-24T12:41:06.534Z,45.71
2023-04-24T12:42:07.936Z,46.03
2023-04-24T12:43:16.918Z,46.01
2023-04-24T12:44:18.938Z,45.57
2023-04-24T12:45:20.835Z,45.42
2023-04-24T12:46:22.792Z,45.21
2023-04-24T12:47:25.007Z,45.18
2023-04-24T12:48:27.409Z,45.34
2023-04-24T12:49:31.238Z,45.27
2023-04-24T12:50:32.826Z,45.35
2023-04-24T12:51:34.269Z,45.56
2023-04-24T12:52:35.768Z,45.28
2023-04-24T12:53:37.169Z,45.04
2023-04-24T12:54:38.584Z,44.65
2023-04-24T12:55:40.882Z,44.27
2023-04-24T12:56:42.322Z,44.48
2023-04-24T12:57:43.860Z,44.42
2023-04-24T12:58:45.315Z,45.01
2023-04-24T12:59:46.750Z,44.96
2023-04-24T13:00:49.116Z,44.89
2023-04-24T13:01:51.184Z,44.73
2023-04-24T13:02:52.808Z,44.83
2023-04-24T13:03:54.618Z,44.72
2023-04-24T13:04:56.206Z,44.44
2023-04-24T13:05:57.764Z,44.80
2023-04-24T13:06:59.141Z,45.30
2023-04-24T13:08:00.648Z,45.47
2023-04-24T13:09:02.231Z,45.68
2023-04-24T13:10:04.011Z,45.67
2023-04-24T13:11:05.636Z,45.51
2023-04-24T13:12:08.149Z,45.81
2023-04-24T13:13:09.702Z,46.02
2023-04-24T13:14:11.058Z,46.37
2023-04-24T13:15:12.849Z,45.67
2023-04-24T13:16:14.371Z,46.00
2023-04-24T13:17:15.819Z,45.97
2023-04-24T13:18:17.687Z,45.82
2023-04-24T13:19:19.215Z,45.55
2023-04-24T13:20:20.719Z,45.60
2023-04-24T13:21:22.107Z,45.93
2023-04-24T13:22:23.569Z,46.23
2023-04-24T13:23:25.123Z,45.98
2023-04-24T13:24:26.659Z,45.96
2023-04-24T13:25:28.499Z,45.68
2023-04-24T13:26:30.064Z,45.55
2023-04-24T13:27:31.788Z,45.43
2023-04-24T13:28:33.340Z,45.36
2023-04-24T13:29:35.043Z,45.13
2023-04-24T13:30:37.649Z,45.03
2023-04-24T13:31:39.429Z,44.77
2023-04-24T13:32:41.074Z,44.66
2023-04-24T13:33:43.153Z,43.92
2023-04-24T13:34:44.953Z,43.84
2023-04-24T13:35:46.415Z,44.05
2023-04-24T13:36:48.163Z,43.71
2023-04-24T13:37:49.806Z,43.06
2023-04-24T13:38:51.447Z,42.28
2023-04-24T13:39:52.905Z,41.73
2023-04-24T13:40:55.140Z,41.44